Terminal Aerodrome Forecast
Issued by NWS

Home | Current Version | Previous Version | Text Only | Print | Product List | Glossary On
Versions: 1 2 3 4 5 6 7 8 9 10 11 12
000
FTUS45 KABQ 201100 RRA
TAFAEG
TAF
KAEG 201140Z 2012/2112 VRB04KT P6SM FEW025
     FM201500 VRB06KT P6SM FEW050
     FM202230 12012G24KT P6SM SCT070 SCT120
     FM210500 09015G25KT P6SM SCT050 BKN080=

USA.gov is the U.S. government's official web portal to all federal, state and local government web resources and services.